createdAt,value
2022-08-17T00:00:44.030Z,20.90
2022-08-17T00:03:22.729Z,20.80
2022-08-17T00:05:54.936Z,20.80
2022-08-17T00:08:27.585Z,20.70
2022-08-17T00:10:57.672Z,20.70
2022-08-17T00:13:33.223Z,20.70
2022-08-17T00:16:07.097Z,20.70
2022-08-17T00:19:01.792Z,20.60
2022-08-17T00:21:28.004Z,20.60
2022-08-17T00:24:17.981Z,20.50
2022-08-17T00:26:47.189Z,20.60
2022-08-17T00:29:19.866Z,20.60
2022-08-17T00:31:49.845Z,20.50
2022-08-17T00:34:20.016Z,20.40
2022-08-17T00:36:48.745Z,20.30
2022-08-17T00:39:17.480Z,20.40
2022-08-17T00:41:46.320Z,20.30
2022-08-17T00:44:15.686Z,20.20
2022-08-17T00:46:46.083Z,20.20
2022-08-17T00:49:19.422Z,20.20
2022-08-17T00:51:56.449Z,20.10
2022-08-17T00:54:31.650Z,20.10
2022-08-17T00:57:10.914Z,20.10
2022-08-17T00:59:46.169Z,20.20
2022-08-17T01:02:25.730Z,20.30
2022-08-17T01:04:57.221Z,20.20
2022-08-17T01:07:28.192Z,20.10
2022-08-17T01:09:56.996Z,20.20
2022-08-17T01:12:25.819Z,20.20
2022-08-17T01:14:54.574Z,20.10
2022-08-17T01:17:23.387Z,20.10
2022-08-17T01:19:52.293Z,20.10
2022-08-17T01:22:25.014Z,20.10
2022-08-17T01:25:00.334Z,20.00
2022-08-17T01:27:30.310Z,20.00
2022-08-17T01:30:56.656Z,20.00
2022-08-17T01:32:57.052Z,20.00
2022-08-17T01:35:26.554Z,20.00
2022-08-17T01:37:56.687Z,20.10
2022-08-17T01:40:34.910Z,20.10
2022-08-17T01:43:11.709Z,20.10
2022-08-17T01:45:45.270Z,20.20
2022-08-17T01:48:15.530Z,20.20
2022-08-17T01:50:47.650Z,20.20
2022-08-17T01:53:24.250Z,20.10
2022-08-17T01:55:59.217Z,20.10
2022-08-17T01:58:28.150Z,20.00
2022-08-17T02:00:59.958Z,19.80
2022-08-17T02:03:31.419Z,19.80
2022-08-17T02:06:00.473Z,19.80
2022-08-17T02:08:38.794Z,19.80
2022-08-17T02:11:14.713Z,19.70
2022-08-17T02:13:44.912Z,19.80
2022-08-17T02:16:14.682Z,19.80
2022-08-17T02:18:43.513Z,19.80
2022-08-17T02:21:13.127Z,19.80
2022-08-17T02:23:47.591Z,19.70
2022-08-17T02:26:26.102Z,19.60
2022-08-17T02:28:55.862Z,19.60
2022-08-17T02:31:24.562Z,19.60
2022-08-17T02:34:00.243Z,19.60
2022-08-17T02:36:34.295Z,19.60
2022-08-17T02:39:07.871Z,19.60
2022-08-17T02:41:37.610Z,19.60
2022-08-17T02:44:07.701Z,19.50
2022-08-17T02:46:37.035Z,19.50
2022-08-17T02:49:06.463Z,19.50
2022-08-17T02:51:35.586Z,19.60
2022-08-17T02:54:41.713Z,19.60
2022-08-17T02:56:54.629Z,19.60
2022-08-17T02:59:24.433Z,19.70
2022-08-17T03:01:53.741Z,19.60
2022-08-17T03:04:22.589Z,19.60
2022-08-17T03:06:51.294Z,19.60
2022-08-17T03:09:21.424Z,19.60
2022-08-17T03:11:50.894Z,19.60
2022-08-17T03:14:26.389Z,19.60
2022-08-17T03:16:55.256Z,19.70
2022-08-17T03:19:24.071Z,19.60
2022-08-17T03:21:55.063Z,19.50
2022-08-17T03:24:28.807Z,19.40
2022-08-17T03:26:57.791Z,19.40
2022-08-17T03:29:26.711Z,19.50
2022-08-17T03:31:55.479Z,19.50
2022-08-17T03:34:24.192Z,19.50
2022-08-17T03:36:52.992Z,19.50
2022-08-17T03:39:21.641Z,19.50
2022-08-17T03:41:51.690Z,19.40
2022-08-17T03:44:20.528Z,19.40
2022-08-17T03:47:06.892Z,19.40
2022-08-17T03:49:53.043Z,19.40
2022-08-17T03:52:38.935Z,19.40
2022-08-17T03:55:30.760Z,19.40
2022-08-17T03:58:06.490Z,19.40
2022-08-17T04:00:39.686Z,19.40
2022-08-17T04:03:09.071Z,19.40
2022-08-17T04:05:38.105Z,19.40
2022-08-17T04:08:07.628Z,19.40
2022-08-17T04:10:38.372Z,19.50
2022-08-17T04:13:15.869Z,19.50
2022-08-17T04:15:54.137Z,19.60
2022-08-17T04:18:22.768Z,19.70
2022-08-17T04:20:51.500Z,19.70
2022-08-17T04:23:20.995Z,19.80
2022-08-17T04:25:53.319Z,20.10
2022-08-17T04:28:23.474Z,20.40
2022-08-17T04:30:52.440Z,20.60
2022-08-17T04:33:24.976Z,21.00
2022-08-17T04:35:58.133Z,21.50
2022-08-17T04:38:30.908Z,21.90
2022-08-17T04:41:15.477Z,22.30
2022-08-17T04:43:47.878Z,22.70
2022-08-17T04:46:20.755Z,23.00
2022-08-17T04:48:53.496Z,23.40
2022-08-17T04:51:25.349Z,23.80
2022-08-17T04:53:58.166Z,23.90
2022-08-17T04:56:29.857Z,24.30
2022-08-17T04:59:05.937Z,24.70
2022-08-17T05:01:38.002Z,25.10
2022-08-17T05:04:32.141Z,25.30
2022-08-17T05:07:00.932Z,25.10
2022-08-17T05:09:30.206Z,25.40
2022-08-17T05:12:02.599Z,25.50
2022-08-17T05:14:33.980Z,25.50
2022-08-17T05:17:07.208Z,25.60
2022-08-17T05:19:40.100Z,25.40
2022-08-17T05:22:08.945Z,25.50
2022-08-17T05:24:43.291Z,25.30
2022-08-17T05:27:19.038Z,25.00
2022-08-17T05:29:49.616Z,24.30
2022-08-17T05:32:38.034Z,23.90
2022-08-17T05:35:09.936Z,23.70
2022-08-17T05:37:39.135Z,23.40
2022-08-17T05:40:10.052Z,23.40
2022-08-17T05:42:38.908Z,23.30
2022-08-17T05:45:12.805Z,23.30
2022-08-17T05:47:42.767Z,23.30
2022-08-17T05:50:27.386Z,23.30
2022-08-17T05:53:10.920Z,23.40
2022-08-17T05:55:52.413Z,23.50
2022-08-17T05:58:32.975Z,23.50
2022-08-17T06:01:14.111Z,23.50
2022-08-17T06:03:58.664Z,23.60
2022-08-17T06:06:40.710Z,23.80
2022-08-17T06:09:46.049Z,23.90
2022-08-17T06:12:47.747Z,24.10
2022-08-17T06:19:46.002Z,24.40
2022-08-17T06:22:21.861Z,24.60
2022-08-17T06:24:57.929Z,24.70
2022-08-17T06:27:35.955Z,24.80
2022-08-17T06:30:13.265Z,25.00
2022-08-17T06:32:49.692Z,25.10
2022-08-17T06:35:34.051Z,25.20
2022-08-17T06:38:37.666Z,25.30
2022-08-17T06:41:20.371Z,25.50
2022-08-17T06:44:07.753Z,25.70
2022-08-17T06:46:42.585Z,25.80
2022-08-17T06:49:21.966Z,26.00
2022-08-17T06:51:59.382Z,26.20
2022-08-17T06:54:40.332Z,26.30
2022-08-17T06:57:19.699Z,26.50
2022-08-17T06:59:56.753Z,26.70
2022-08-17T07:02:51.913Z,26.90
2022-08-17T07:05:26.817Z,27.10
2022-08-17T07:08:07.123Z,27.20
2022-08-17T07:10:45.995Z,27.40
2022-08-17T07:13:51.465Z,27.50
2022-08-17T07:16:29.259Z,27.60
2022-08-17T07:19:00.121Z,27.60
2022-08-17T07:21:46.082Z,27.90
2022-08-17T07:24:35.761Z,28.10
2022-08-17T07:27:09.521Z,28.10
2022-08-17T07:29:45.164Z,28.20
2022-08-17T07:32:19.598Z,28.30
2022-08-17T07:35:22.148Z,28.40
2022-08-17T07:38:25.972Z,28.60
2022-08-17T07:41:06.334Z,28.50
2022-08-17T07:43:39.037Z,28.70
2022-08-17T07:46:37.864Z,28.80
2022-08-17T07:49:37.437Z,28.80
2022-08-17T07:52:47.293Z,28.90
2022-08-17T07:55:01.202Z,29.20
2022-08-17T07:57:37.255Z,29.20
2022-08-17T08:00:29.126Z,29.20
2022-08-17T08:03:26.233Z,29.30
2022-08-17T08:06:02.265Z,29.40
2022-08-17T08:08:42.404Z,29.60
2022-08-17T08:11:29.380Z,29.50
2022-08-17T08:14:28.310Z,29.50
2022-08-17T08:17:02.535Z,29.80
2022-08-17T08:19:33.249Z,29.90
2022-08-17T08:22:11.573Z,29.90
2022-08-17T08:25:05.685Z,30.10
2022-08-17T08:27:51.290Z,30.20
2022-08-17T08:30:23.828Z,30.30
2022-08-17T08:33:22.060Z,30.30
2022-08-17T08:36:00.511Z,30.20
2022-08-17T08:38:45.574Z,30.30
2022-08-17T08:41:49.395Z,30.50
2022-08-17T08:44:59.679Z,30.60
2022-08-17T08:48:05.593Z,30.50
2022-08-17T08:50:49.519Z,30.20
2022-08-17T08:53:32.984Z,30.30
2022-08-17T08:56:11.764Z,30.30
2022-08-17T08:58:55.570Z,30.70
2022-08-17T09:01:38.207Z,30.70
2022-08-17T09:05:02.815Z,30.80
2022-08-17T09:07:38.454Z,30.70
2022-08-17T09:10:22.087Z,30.70
2022-08-17T09:13:15.967Z,30.60
2022-08-17T09:15:49.628Z,30.50
2022-08-17T09:19:00.518Z,30.70
2022-08-17T09:21:25.261Z,30.60
2022-08-17T09:24:11.240Z,30.70
2022-08-17T09:26:49.874Z,30.80
2022-08-17T09:29:24.475Z,30.90
2022-08-17T09:31:58.433Z,30.70
2022-08-17T09:34:36.546Z,30.60
2022-08-17T09:37:27.245Z,30.60
2022-08-17T09:40:10.997Z,30.50
2022-08-17T09:42:48.346Z,30.80
2022-08-17T09:45:33.672Z,30.90
2022-08-17T09:48:12.462Z,31.00
2022-08-17T09:50:55.356Z,30.90
2022-08-17T09:53:39.551Z,31.10
2022-08-17T09:56:36.105Z,31.10
2022-08-17T09:59:44.857Z,31.10
2022-08-17T10:02:43.549Z,31.30
2022-08-17T10:05:22.416Z,31.50
2022-08-17T10:08:09.443Z,31.60
2022-08-17T10:10:56.538Z,31.60
2022-08-17T10:13:38.489Z,31.80
2022-08-17T10:16:22.036Z,31.70
2022-08-17T10:19:11.728Z,32.00
2022-08-17T10:22:14.651Z,32.00
2022-08-17T10:25:22.912Z,31.80
2022-08-17T10:28:00.415Z,32.00
2022-08-17T10:30:33.969Z,31.80
2022-08-17T10:33:07.569Z,31.80
2022-08-17T10:35:51.920Z,31.70
2022-08-17T10:38:48.916Z,31.80
2022-08-17T10:41:30.402Z,31.90
2022-08-17T10:44:37.084Z,32.00
2022-08-17T10:47:11.770Z,32.10
2022-08-17T10:49:48.052Z,32.40
2022-08-17T10:52:57.517Z,32.40
2022-08-17T10:55:26.521Z,32.60
2022-08-17T10:58:22.132Z,32.40
2022-08-17T11:01:12.716Z,32.50
2022-08-17T11:03:55.308Z,32.40
2022-08-17T11:06:37.177Z,32.30
2022-08-17T11:09:35.078Z,32.40
2022-08-17T11:12:29.624Z,32.40
2022-08-17T11:15:30.874Z,32.60
2022-08-17T11:18:39.969Z,32.20
2022-08-17T11:21:52.773Z,32.40
2022-08-17T11:24:30.632Z,32.50
2022-08-17T11:27:24.260Z,32.80
2022-08-17T11:30:01.426Z,32.70
2022-08-17T11:32:38.970Z,32.80
2022-08-17T11:35:41.339Z,32.50
2022-08-17T11:38:27.836Z,32.30
2022-08-17T11:41:21.562Z,32.20
2022-08-17T11:44:18.657Z,32.20
2022-08-17T11:47:29.586Z,32.40
2022-08-17T11:51:01.703Z,32.40
2022-08-17T11:57:02.594Z,32.30
2022-08-17T11:59:59.758Z,32.60
2022-08-17T12:02:47.920Z,32.70
2022-08-17T12:05:36.092Z,32.70
2022-08-17T12:08:17.842Z,32.90
2022-08-17T12:11:01.796Z,33.00
2022-08-17T12:13:38.416Z,33.30
2022-08-17T12:16:10.534Z,33.70
2022-08-17T12:18:42.250Z,33.60
2022-08-17T12:21:40.404Z,33.70
2022-08-17T12:24:29.361Z,33.50
2022-08-17T12:27:01.859Z,33.60
2022-08-17T12:29:35.193Z,33.70
2022-08-17T12:32:14.159Z,33.80
2022-08-17T12:34:46.898Z,33.90
2022-08-17T12:37:21.305Z,33.60
2022-08-17T12:39:56.188Z,33.50
2022-08-17T12:42:34.918Z,33.40
2022-08-17T12:45:04.218Z,33.00
2022-08-17T12:47:37.231Z,32.80
2022-08-17T12:50:29.492Z,32.90
2022-08-17T12:53:02.665Z,33.20
2022-08-17T12:55:39.057Z,33.20
2022-08-17T12:58:14.741Z,33.10
2022-08-17T13:00:59.887Z,32.80
2022-08-17T13:03:36.286Z,32.90
2022-08-17T13:06:09.235Z,32.80
2022-08-17T13:08:44.000Z,32.90
2022-08-17T13:11:22.673Z,32.90
2022-08-17T13:13:55.166Z,32.80
2022-08-17T13:16:28.291Z,32.70
2022-08-17T13:19:09.937Z,32.50
2022-08-17T13:21:47.939Z,32.20
2022-08-17T13:24:25.143Z,32.00
2022-08-17T13:27:08.036Z,32.00
2022-08-17T13:29:42.120Z,32.00
2022-08-17T13:32:24.412Z,32.00
2022-08-17T13:35:15.261Z,32.00
2022-08-17T13:38:01.451Z,32.10
2022-08-17T13:40:53.344Z,32.30
2022-08-17T13:43:45.910Z,32.20
2022-08-17T13:46:22.394Z,32.40
2022-08-17T13:49:02.957Z,32.60
2022-08-17T13:51:43.266Z,32.90
2022-08-17T13:54:27.739Z,32.90
2022-08-17T13:57:03.896Z,33.20
2022-08-17T13:59:55.969Z,33.20
2022-08-17T14:02:28.416Z,33.50
2022-08-17T14:05:00.747Z,33.60
2022-08-17T14:07:35.226Z,33.40
2022-08-17T14:10:12.535Z,33.30
2022-08-17T14:12:46.392Z,33.20
2022-08-17T14:15:20.634Z,33.00
2022-08-17T14:17:50.597Z,32.90
2022-08-17T14:20:24.656Z,32.90
2022-08-17T14:22:56.087Z,32.80
2022-08-17T14:25:28.563Z,32.90
2022-08-17T14:27:59.222Z,32.80
2022-08-17T14:30:30.227Z,32.80
2022-08-17T14:33:02.305Z,32.80
2022-08-17T14:35:31.305Z,32.90
2022-08-17T14:38:00.321Z,32.90
2022-08-17T14:40:29.693Z,32.90
2022-08-17T14:43:00.104Z,33.10
2022-08-17T14:45:32.892Z,33.20
2022-08-17T14:48:06.377Z,33.10
2022-08-17T14:50:36.731Z,33.20
2022-08-17T14:53:07.632Z,33.20
2022-08-17T14:55:39.991Z,33.10
2022-08-17T14:58:10.695Z,33.10
2022-08-17T15:00:43.112Z,33.10
2022-08-17T15:03:12.678Z,33.00
2022-08-17T15:05:41.608Z,33.20
2022-08-17T15:08:10.509Z,32.90
2022-08-17T15:10:40.744Z,32.90
2022-08-17T15:13:20.162Z,33.00
2022-08-17T15:15:49.622Z,32.90
2022-08-17T15:18:19.029Z,32.80
2022-08-17T15:20:50.146Z,32.90
2022-08-17T15:23:22.764Z,32.90
2022-08-17T15:25:54.350Z,32.90
2022-08-17T15:28:25.120Z,32.90
2022-08-17T15:30:55.233Z,33.00
2022-08-17T15:33:29.976Z,32.80
2022-08-17T15:36:02.466Z,32.70
2022-08-17T15:38:35.418Z,32.70
2022-08-17T15:41:05.252Z,32.60
2022-08-17T15:43:36.509Z,32.50
2022-08-17T15:46:10.601Z,32.40
2022-08-17T15:48:44.690Z,32.40
2022-08-17T15:51:16.322Z,32.40
2022-08-17T15:53:48.712Z,32.30
2022-08-17T15:56:18.354Z,32.50
2022-08-17T15:58:51.092Z,32.90
2022-08-17T16:02:24.759Z,32.90
2022-08-17T16:04:26.881Z,33.00
2022-08-17T16:07:00.030Z,33.00
2022-08-17T16:09:29.123Z,33.00
2022-08-17T16:11:58.005Z,32.90
2022-08-17T16:14:33.929Z,32.80
2022-08-17T16:17:04.683Z,32.80
2022-08-17T16:19:34.493Z,32.60
2022-08-17T16:22:04.302Z,32.50
2022-08-17T16:24:34.131Z,32.40
2022-08-17T16:27:03.360Z,32.30
2022-08-17T16:29:43.224Z,32.30
2022-08-17T16:32:21.902Z,32.30
2022-08-17T16:35:03.611Z,32.20
2022-08-17T16:37:34.181Z,32.20
2022-08-17T16:40:05.955Z,32.00
2022-08-17T16:42:37.725Z,32.00
2022-08-17T16:45:13.165Z,31.80
2022-08-17T16:47:43.047Z,31.70
2022-08-17T16:50:15.495Z,31.70
2022-08-17T16:52:48.562Z,31.60
2022-08-17T16:55:20.735Z,31.50
2022-08-17T16:57:50.641Z,31.50
2022-08-17T17:00:21.641Z,31.50
2022-08-17T17:02:50.914Z,31.40
2022-08-17T17:05:44.643Z,31.40
2022-08-17T17:08:32.777Z,31.70
2022-08-17T17:11:11.726Z,31.80
2022-08-17T17:13:47.851Z,31.70
2022-08-17T17:16:24.109Z,31.70
2022-08-17T17:19:10.353Z,31.50
2022-08-17T17:21:48.498Z,31.30
2022-08-17T17:24:30.008Z,31.10
2022-08-17T17:27:28.829Z,30.90
2022-08-17T17:30:10.777Z,30.80
2022-08-17T17:32:47.433Z,30.70
2022-08-17T17:35:26.889Z,30.60
2022-08-17T17:37:58.390Z,30.50
2022-08-17T17:40:39.340Z,30.40
2022-08-17T17:43:36.888Z,30.20
2022-08-17T17:46:28.645Z,30.00
2022-08-17T17:49:00.199Z,29.80
2022-08-17T17:52:06.337Z,29.70
2022-08-17T17:55:02.538Z,29.60
2022-08-17T17:57:49.053Z,29.60
2022-08-17T18:00:24.717Z,29.50
2022-08-17T18:03:17.036Z,29.30
2022-08-17T18:06:22.639Z,29.30
2022-08-17T18:09:06.410Z,29.10
2022-08-17T18:12:09.312Z,28.90
2022-08-17T18:15:03.584Z,28.70
2022-08-17T18:17:34.152Z,28.70
2022-08-17T18:20:03.249Z,28.60
2022-08-17T18:22:35.011Z,28.50
2022-08-17T18:25:43.944Z,28.40
2022-08-17T18:28:26.222Z,28.20
2022-08-17T18:31:13.635Z,28.10
2022-08-17T18:33:45.986Z,28.10
2022-08-17T18:36:29.366Z,28.00
2022-08-17T18:39:18.171Z,27.90
2022-08-17T18:41:53.225Z,27.90
2022-08-17T18:44:29.548Z,27.80
2022-08-17T18:47:15.463Z,27.70
2022-08-17T18:49:48.931Z,27.80
2022-08-17T18:52:24.940Z,27.70
2022-08-17T18:55:10.301Z,27.60
2022-08-17T18:57:45.853Z,27.50
2022-08-17T19:00:36.739Z,27.40
2022-08-17T19:03:25.040Z,27.30
2022-08-17T19:05:56.524Z,27.20
2022-08-17T19:08:37.050Z,27.10
2022-08-17T19:11:11.609Z,27.00
2022-08-17T19:13:48.404Z,26.90
2022-08-17T19:16:28.576Z,26.80
2022-08-17T19:19:05.384Z,26.80
2022-08-17T19:21:40.481Z,26.70
2022-08-17T19:24:19.682Z,26.60
2022-08-17T19:26:57.529Z,26.50
2022-08-17T19:29:44.128Z,26.40
2022-08-17T19:32:16.965Z,26.40
2022-08-17T19:34:46.510Z,26.30
2022-08-17T19:37:31.646Z,26.30
2022-08-17T19:40:29.266Z,26.30
2022-08-17T19:43:18.003Z,26.20
2022-08-17T19:46:08.790Z,26.20
2022-08-17T19:48:53.480Z,26.10
2022-08-17T19:51:41.744Z,26.10
2022-08-17T19:54:23.002Z,26.10
2022-08-17T19:57:06.018Z,26.10
2022-08-17T19:59:55.445Z,25.90
2022-08-17T20:02:39.833Z,25.80
2022-08-17T20:05:16.999Z,25.70
2022-08-17T20:07:56.644Z,25.70
2022-08-17T20:10:40.600Z,25.70
2022-08-17T20:13:16.819Z,25.70
2022-08-17T20:15:47.923Z,25.80
2022-08-17T20:18:27.486Z,25.80
2022-08-17T20:21:03.049Z,25.70
2022-08-17T20:23:52.918Z,25.60
2022-08-17T20:26:30.065Z,25.60
2022-08-17T20:29:37.676Z,25.50
2022-08-17T20:32:26.262Z,25.40
2022-08-17T20:35:27.108Z,25.30
2022-08-17T20:38:02.280Z,25.30
2022-08-17T20:40:38.291Z,25.30
2022-08-17T20:43:49.069Z,25.20
2022-08-17T20:46:52.173Z,25.20
2022-08-17T20:49:30.521Z,25.10
2022-08-17T20:52:08.628Z,24.90
2022-08-17T20:54:52.868Z,24.90
2022-08-17T20:57:48.933Z,24.80
2022-08-17T21:00:44.929Z,24.80
2022-08-17T21:03:52.342Z,24.80
2022-08-17T21:06:26.789Z,24.80
2022-08-17T21:09:00.594Z,24.80
2022-08-17T21:17:27.604Z,24.70
2022-08-17T21:21:07.475Z,24.60
2022-08-17T21:28:33.916Z,24.50
2022-08-17T21:49:13.313Z,24.50
2022-08-17T21:52:33.336Z,24.50
2022-08-17T21:55:31.166Z,24.40
2022-08-17T21:58:37.470Z,24.50
2022-08-17T22:01:59.645Z,24.40
2022-08-17T22:04:50.982Z,24.30
2022-08-17T22:07:50.921Z,24.30
2022-08-17T22:11:21.887Z,24.20
2022-08-17T22:14:51.675Z,24.30
2022-08-17T22:18:10.160Z,24.30
2022-08-17T22:21:27.285Z,24.20
2022-08-17T22:24:36.737Z,24.20
2022-08-17T22:28:22.060Z,24.10
2022-08-17T22:31:16.614Z,24.10
2022-08-17T22:34:30.877Z,24.10
2022-08-17T22:37:35.506Z,23.90
2022-08-17T22:40:52.939Z,23.90
2022-08-17T22:43:57.941Z,23.90
2022-08-17T22:46:32.453Z,23.90
2022-08-17T22:49:02.125Z,23.90
2022-08-17T22:51:32.733Z,23.90
2022-08-17T22:54:31.225Z,23.90
2022-08-17T22:57:22.920Z,23.80
2022-08-17T22:59:57.604Z,23.80
2022-08-17T23:02:29.017Z,23.80
2022-08-17T23:05:22.881Z,23.80
2022-08-17T23:07:53.941Z,23.80
2022-08-17T23:10:22.733Z,23.80
2022-08-17T23:12:51.895Z,23.80
2022-08-17T23:15:22.156Z,23.70
2022-08-17T23:17:51.437Z,23.70
2022-08-17T23:20:20.685Z,23.70
2022-08-17T23:22:51.911Z,23.70
2022-08-17T23:25:29.711Z,23.70
2022-08-17T23:28:01.809Z,23.70
2022-08-17T23:30:35.624Z,23.70
2022-08-17T23:33:08.923Z,23.70
2022-08-17T23:35:38.939Z,23.70
2022-08-17T23:38:10.685Z,23.70
2022-08-17T23:40:40.471Z,23.70
2022-08-17T23:43:24.308Z,23.50
2022-08-17T23:45:58.055Z,23.50
2022-08-17T23:48:36.736Z,23.50
2022-08-17T23:51:10.726Z,23.40
2022-08-17T23:53:44.231Z,23.30
2022-08-17T23:56:13.067Z,23.20
2022-08-17T23:58:44.925Z,23.20
